sensor_id;sensor_type;location;lat;lon;timestamp;pressure;altitude;pressure_sealevel;temperature;humidity
19086;BME280;9675;51.538;6.728;2022-11-20T00:01:30;100969.06;;;2.38;91.48
19086;BME280;9675;51.538;6.728;2022-11-20T00:03:58;100969.06;;;2.38;91.66
19086;BME280;9675;51.538;6.728;2022-11-20T00:06:27;100960.78;;;2.30;91.75
19086;BME280;9675;51.538;6.728;2022-11-20T00:08:59;100964.59;;;2.35;92.48
19086;BME280;9675;51.538;6.728;2022-11-20T00:11:28;100964.97;;;2.30;92.17
19086;BME280;9675;51.538;6.728;2022-11-20T00:13:58;100963.47;;;2.32;92.56
19086;BME280;9675;51.538;6.728;2022-11-20T00:16:29;100966.63;;;2.29;92.41
19086;BME280;9675;51.538;6.728;2022-11-20T00:18:56;100963.19;;;2.29;92.66
19086;BME280;9675;51.538;6.728;2022-11-20T00:21:25;100964.72;;;2.27;92.67
19086;BME280;9675;51.538;6.728;2022-11-20T00:23:56;100965.47;;;2.26;92.79
19086;BME280;9675;51.538;6.728;2022-11-20T00:26:26;100966.09;;;2.23;93.52
19086;BME280;9675;51.538;6.728;2022-11-20T00:28:55;100963.56;;;2.23;93.26
19086;BME280;9675;51.538;6.728;2022-11-20T00:31:23;100956.59;;;2.21;93.30
19086;BME280;9675;51.538;6.728;2022-11-20T00:33:50;100949.56;;;2.18;93.99
19086;BME280;9675;51.538;6.728;2022-11-20T00:36:20;100955.56;;;2.19;93.41
19086;BME280;9675;51.538;6.728;2022-11-20T00:38:51;100955.31;;;2.16;93.57
19086;BME280;9675;51.538;6.728;2022-11-20T00:41:19;100953.53;;;2.14;93.91
19086;BME280;9675;51.538;6.728;2022-11-20T00:43:47;100951.75;;;2.13;94.43
19086;BME280;9675;51.538;6.728;2022-11-20T00:46:16;100955.03;;;2.12;93.99
19086;BME280;9675;51.538;6.728;2022-11-20T00:48:44;100948.94;;;2.10;94.14
19086;BME280;9675;51.538;6.728;2022-11-20T00:51:14;100947.03;;;2.08;94.70
19086;BME280;9675;51.538;6.728;2022-11-20T00:53:42;100950.34;;;2.07;94.61
19086;BME280;9675;51.538;6.728;2022-11-20T00:56:13;100946.91;;;2.06;94.75
19086;BME280;9675;51.538;6.728;2022-11-20T00:58:45;100945.88;;;2.04;94.41
19086;BME280;9675;51.538;6.728;2022-11-20T01:01:16;100946.66;;;2.03;94.79
19086;BME280;9675;51.538;6.728;2022-11-20T01:03:45;100944.09;;;2.03;95.21
19086;BME280;9675;51.538;6.728;2022-11-20T01:06:18;100943.88;;;2.00;95.61
19086;BME280;9675;51.538;6.728;2022-11-20T01:08:47;100940.28;;;1.98;95.57
19086;BME280;9675;51.538;6.728;2022-11-20T01:11:18;100940.28;;;1.98;95.68
19086;BME280;9675;51.538;6.728;2022-11-20T01:13:49;100930.66;;;1.94;95.83
19086;BME280;9675;51.538;6.728;2022-11-20T01:16:19;100936.63;;;1.95;96.43
19086;BME280;9675;51.538;6.728;2022-11-20T01:18:49;100929.63;;;1.92;96.43
19086;BME280;9675;51.538;6.728;2022-11-20T01:21:19;100922.78;;;1.91;96.77
19086;BME280;9675;51.538;6.728;2022-11-20T01:23:49;100919.22;;;1.89;96.64
19086;BME280;9675;51.538;6.728;2022-11-20T01:26:19;100919.22;;;1.89;96.84
19086;BME280;9675;51.538;6.728;2022-11-20T01:28:49;100918.19;;;1.87;96.68
19086;BME280;9675;51.538;6.728;2022-11-20T01:31:20;100923.16;;;1.86;96.29
19086;BME280;9675;51.538;6.728;2022-11-20T01:33:50;100926.31;;;1.83;96.36
19086;BME280;9675;51.538;6.728;2022-11-20T01:36:20;100931.25;;;1.82;97.03
19086;BME280;9675;51.538;6.728;2022-11-20T01:38:50;100926.94;;;1.81;97.02
19086;BME280;9675;51.538;6.728;2022-11-20T01:41:17;100928.44;;;1.79;96.99
19086;BME280;9675;51.538;6.728;2022-11-20T01:44:01;100928.31;;;1.77;97.25
19086;BME280;9675;51.538;6.728;2022-11-20T01:46:30;100921.47;;;1.76;97.11
19086;BME280;9675;51.538;6.728;2022-11-20T01:49:03;100925.66;;;1.76;97.16
19086;BME280;9675;51.538;6.728;2022-11-20T01:51:38;100920.44;;;1.74;96.96
19086;BME280;9675;51.538;6.728;2022-11-20T01:54:13;100914.34;;;1.72;97.10
19086;BME280;9675;51.538;6.728;2022-11-20T01:56:44;100915.00;;;1.69;97.51
19086;BME280;9675;51.538;6.728;2022-11-20T01:59:18;100930.81;;;1.67;97.75
19086;BME280;9675;51.538;6.728;2022-11-20T02:01:46;100927.28;;;1.65;97.68
19086;BME280;9675;51.538;6.728;2022-11-20T02:04:14;100910.28;;;1.64;97.97
19086;BME280;9675;51.538;6.728;2022-11-20T02:06:47;100911.16;;;1.64;97.83
19086;BME280;9675;51.538;6.728;2022-11-20T02:09:15;100917.88;;;1.64;97.97
19086;BME280;9675;51.538;6.728;2022-11-20T02:11:43;100922.81;;;1.62;97.73
19086;BME280;9675;51.538;6.728;2022-11-20T02:14:10;100917.50;;;1.59;97.60
19086;BME280;9675;51.538;6.728;2022-11-20T02:16:43;100916.59;;;1.59;98.05
19086;BME280;9675;51.538;6.728;2022-11-20T02:19:22;100904.69;;;1.58;98.44
19086;BME280;9675;51.538;6.728;2022-11-20T02:22:00;100903.91;;;1.59;98.46
19086;BME280;9675;51.538;6.728;2022-11-20T02:24:30;100905.56;;;1.58;98.40
19086;BME280;9675;51.538;6.728;2022-11-20T02:27:01;100890.19;;;1.57;97.73
19086;BME280;9675;51.538;6.728;2022-11-20T02:29:36;100893.50;;;1.56;97.99
19086;BME280;9675;51.538;6.728;2022-11-20T02:32:05;100895.16;;;1.55;98.50
19086;BME280;9675;51.538;6.728;2022-11-20T02:34:32;100897.56;;;1.54;98.68
19086;BME280;9675;51.538;6.728;2022-11-20T02:37:00;100890.72;;;1.53;98.44
19086;BME280;9675;51.538;6.728;2022-11-20T02:39:29;100888.91;;;1.52;98.62
19086;BME280;9675;51.538;6.728;2022-11-20T02:41:56;100873.69;;;1.52;98.81
19086;BME280;9675;51.538;6.728;2022-11-20T02:44:23;100882.94;;;1.51;99.61
19086;BME280;9675;51.538;6.728;2022-11-20T02:46:50;100886.25;;;1.50;99.77
19086;BME280;9675;51.538;6.728;2022-11-20T02:49:17;100887.13;;;1.51;99.58
19086;BME280;9675;51.538;6.728;2022-11-20T02:51:44;100885.50;;;1.51;99.82
19086;BME280;9675;51.538;6.728;2022-11-20T02:54:11;100888.69;;;1.49;100.00
19086;BME280;9675;51.538;6.728;2022-11-20T02:56:40;100882.56;;;1.47;100.00
19086;BME280;9675;51.538;6.728;2022-11-20T02:59:07;100878.53;;;1.49;100.00
19086;BME280;9675;51.538;6.728;2022-11-20T03:01:34;100880.31;;;1.50;100.00
19086;BME280;9675;51.538;6.728;2022-11-20T03:04:02;100875.84;;;1.47;100.00
19086;BME280;9675;51.538;6.728;2022-11-20T03:06:29;100878.53;;;1.49;100.00
19086;BME280;9675;51.538;6.728;2022-11-20T03:08:56;100874.97;;;1.47;100.00
19086;BME280;9675;51.538;6.728;2022-11-20T03:11:23;100887.03;;;1.49;100.00
19086;BME280;9675;51.538;6.728;2022-11-20T03:13:51;100879.28;;;1.48;100.00
19086;BME280;9675;51.538;6.728;2022-11-20T03:16:21;100886.00;;;1.47;100.00
19086;BME280;9675;51.538;6.728;2022-11-20T03:18:49;100875.84;;;1.47;100.00
19086;BME280;9675;51.538;6.728;2022-11-20T03:21:18;100880.91;;;1.47;100.00
19086;BME280;9675;51.538;6.728;2022-11-20T03:23:45;100878.38;;;1.47;100.00
19086;BME280;9675;51.538;6.728;2022-11-20T03:26:16;100885.84;;;1.46;100.00
19086;BME280;9675;51.538;6.728;2022-11-20T03:28:48;100883.31;;;1.46;100.00
19086;BME280;9675;51.538;6.728;2022-11-20T03:31:20;100878.25;;;1.46;100.00
19086;BME280;9675;51.538;6.728;2022-11-20T03:33:47;100878.25;;;1.46;100.00
19086;BME280;9675;51.538;6.728;2022-11-20T03:36:17;100869.88;;;1.47;100.00
19086;BME280;9675;51.538;6.728;2022-11-20T03:38:44;100877.50;;;1.47;100.00
19086;BME280;9675;51.538;6.728;2022-11-20T03:41:16;100864.81;;;1.47;100.00
19086;BME280;9675;51.538;6.728;2022-11-20T03:43:48;100867.34;;;1.47;100.00
19086;BME280;9675;51.538;6.728;2022-11-20T03:46:17;100863.03;;;1.46;100.00
19086;BME280;9675;51.538;6.728;2022-11-20T03:48:44;100869.00;;;1.46;100.00
19086;BME280;9675;51.538;6.728;2022-11-20T03:51:13;100875.84;;;1.47;100.00
19086;BME280;9675;51.538;6.728;2022-11-20T03:53:43;100864.81;;;1.47;100.00
19086;BME280;9675;51.538;6.728;2022-11-20T03:56:13;100869.13;;;1.48;100.00
19086;BME280;9675;51.538;6.728;2022-11-20T03:58:40;100860.78;;;1.49;100.00
19086;BME280;9675;51.538;6.728;2022-11-20T04:01:09;100863.31;;;1.49;100.00
19086;BME280;9675;51.538;6.728;2022-11-20T04:03:41;100860.00;;;1.50;100.00
19086;BME280;9675;51.538;6.728;2022-11-20T04:06:12;100857.34;;;1.48;100.00
19086;BME280;9675;51.538;6.728;2022-11-20T04:08:40;100861.66;;;1.49;100.00
19086;BME280;9675;51.538;6.728;2022-11-20T04:11:12;100863.31;;;1.49;100.00
19086;BME280;9675;51.538;6.728;2022-11-20T04:13:40;100854.81;;;1.48;100.00
19086;BME280;9675;51.538;6.728;2022-11-20T04:16:09;100852.25;;;1.48;100.00
19086;BME280;9675;51.538;6.728;2022-11-20T04:18:38;100853.16;;;1.49;100.00
19086;BME280;9675;51.538;6.728;2022-11-20T04:21:06;100854.81;;;1.48;100.00
19086;BME280;9675;51.538;6.728;2022-11-20T04:23:33;100851.50;;;1.49;100.00
19086;BME280;9675;51.538;6.728;2022-11-20T04:26:05;100860.00;;;1.50;100.00
19086;BME280;9675;51.538;6.728;2022-11-20T04:28:33;100848.09;;;1.49;100.00
19086;BME280;9675;51.538;6.728;2022-11-20T04:31:05;100850.63;;;1.49;100.00
19086;BME280;9675;51.538;6.728;2022-11-20T04:33:33;100852.25;;;1.48;100.00
19086;BME280;9675;51.538;6.728;2022-11-20T04:36:04;100853.16;;;1.49;100.00
19086;BME280;9675;51.538;6.728;2022-11-20T04:38:32;100846.28;;;1.48;100.00
19086;BME280;9675;51.538;6.728;2022-11-20T04:41:02;100851.50;;;1.49;100.00
19086;BME280;9675;51.538;6.728;2022-11-20T04:43:30;100849.88;;;1.50;100.00
19086;BME280;9675;51.538;6.728;2022-11-20T04:45:58;100846.53;;;1.51;100.00
19086;BME280;9675;51.538;6.728;2022-11-20T04:48:28;100856.69;;;1.51;100.00
19086;BME280;9675;51.538;6.728;2022-11-20T04:50:56;100849.09;;;1.51;100.00
19086;BME280;9675;51.538;6.728;2022-11-20T04:53:24;100849.97;;;1.51;100.00
19086;BME280;9675;51.538;6.728;2022-11-20T04:55:59;100852.41;;;1.50;100.00
19086;BME280;9675;51.538;6.728;2022-11-20T04:58:26;100851.50;;;1.49;100.00
19086;BME280;9675;51.538;6.728;2022-11-20T05:00:53;100852.41;;;1.50;100.00
19086;BME280;9675;51.538;6.728;2022-11-20T05:03:20;100855.78;;;1.50;100.00
19086;BME280;9675;51.538;6.728;2022-11-20T05:05:47;100851.50;;;1.49;100.00
19086;BME280;9675;51.538;6.728;2022-11-20T05:08:14;100856.69;;;1.51;100.00
19086;BME280;9675;51.538;6.728;2022-11-20T05:10:42;100852.50;;;1.51;100.00
19086;BME280;9675;51.538;6.728;2022-11-20T05:13:09;100845.66;;;1.50;100.00
19086;BME280;9675;51.538;6.728;2022-11-20T05:15:36;100854.16;;;1.51;100.00
19086;BME280;9675;51.538;6.728;2022-11-20T05:18:04;100854.28;;;1.52;100.00
19086;BME280;9675;51.538;6.728;2022-11-20T05:20:31;100845.78;;;1.52;100.00
19086;BME280;9675;51.538;6.728;2022-11-20T05:22:58;100851.91;;;1.54;100.00
19086;BME280;9675;51.538;6.728;2022-11-20T05:25:25;100856.97;;;1.54;100.00
19086;BME280;9675;51.538;6.728;2022-11-20T05:27:54;100846.81;;;1.54;100.00
19086;BME280;9675;51.538;6.728;2022-11-20T05:30:21;100850.25;;;1.54;100.00
19086;BME280;9675;51.538;6.728;2022-11-20T05:32:48;100841.75;;;1.54;100.00
19086;BME280;9675;51.538;6.728;2022-11-20T05:35:15;100841.75;;;1.54;100.00
19086;BME280;9675;51.538;6.728;2022-11-20T05:37:42;100838.47;;;1.55;100.00
19086;BME280;9675;51.538;6.728;2022-11-20T05:40:11;100845.03;;;1.53;100.00
19086;BME280;9675;51.538;6.728;2022-11-20T05:42:38;100840.09;;;1.54;100.00
19086;BME280;9675;51.538;6.728;2022-11-20T05:45:08;100840.09;;;1.54;100.00
19086;BME280;9675;51.538;6.728;2022-11-20T05:47:35;100840.22;;;1.56;100.00
19086;BME280;9675;51.538;6.728;2022-11-20T05:50:03;100838.47;;;1.55;100.00
19086;BME280;9675;51.538;6.728;2022-11-20T05:52:30;100845.94;;;1.53;100.00
19086;BME280;9675;51.538;6.728;2022-11-20T05:54:57;100843.53;;;1.55;100.00
19086;BME280;9675;51.538;6.728;2022-11-20T05:57:24;100841.00;;;1.55;100.00
19086;BME280;9675;51.538;6.728;2022-11-20T05:59:51;100840.84;;;1.53;100.00
19086;BME280;9675;51.538;6.728;2022-11-20T06:02:20;100833.25;;;1.53;100.00
19086;BME280;9675;51.538;6.728;2022-11-20T06:04:47;100830.72;;;1.53;100.00
19086;BME280;9675;51.538;6.728;2022-11-20T06:07:14;100832.34;;;1.53;100.00
19086;BME280;9675;51.538;6.728;2022-11-20T06:09:41;100834.88;;;1.53;100.00
19086;BME280;9675;51.538;6.728;2022-11-20T06:12:08;100833.09;;;1.52;100.00
19086;BME280;9675;51.538;6.728;2022-11-20T06:14:35;100831.31;;;1.51;100.00
19086;BME280;9675;51.538;6.728;2022-11-20T06:17:02;100842.38;;;1.51;100.00
19086;BME280;9675;51.538;6.728;2022-11-20T06:19:30;100840.56;;;1.50;100.00
19086;BME280;9675;51.538;6.728;2022-11-20T06:21:57;100846.53;;;1.51;100.00
19086;BME280;9675;51.538;6.728;2022-11-20T06:24:24;100844.78;;;1.50;100.00
19086;BME280;9675;51.538;6.728;2022-11-20T06:26:52;100844.78;;;1.50;100.00
19086;BME280;9675;51.538;6.728;2022-11-20T06:29:19;100839.72;;;1.50;100.00
19086;BME280;9675;51.538;6.728;2022-11-20T06:31:46;100849.09;;;1.51;100.00
19086;BME280;9675;51.538;6.728;2022-11-20T06:34:13;100844.78;;;1.50;100.00
19086;BME280;9675;51.538;6.728;2022-11-20T06:36:41;100849.88;;;1.50;100.00
19086;BME280;9675;51.538;6.728;2022-11-20T06:39:09;100842.38;;;1.51;100.00
19086;BME280;9675;51.538;6.728;2022-11-20T06:41:36;100850.72;;;1.50;100.00
19086;BME280;9675;51.538;6.728;2022-11-20T06:44:04;100845.53;;;1.49;100.00
19086;BME280;9675;51.538;6.728;2022-11-20T06:46:32;100853.16;;;1.49;100.00
19086;BME280;9675;51.538;6.728;2022-11-20T06:48:59;100856.44;;;1.48;100.00
19086;BME280;9675;51.538;6.728;2022-11-20T06:51:26;100853.78;;;1.46;100.00
19086;BME280;9675;51.538;6.728;2022-11-20T06:53:54;100854.41;;;1.44;100.00
19086;BME280;9675;51.538;6.728;2022-11-20T06:56:21;100854.28;;;1.42;100.00
19086;BME280;9675;51.538;6.728;2022-11-20T06:58:48;100855.16;;;1.43;100.00
19086;BME280;9675;51.538;6.728;2022-11-20T07:01:16;100862.53;;;1.40;100.00
19086;BME280;9675;51.538;6.728;2022-11-20T07:03:43;100867.59;;;1.40;100.00
19086;BME280;9675;51.538;6.728;2022-11-20T07:06:10;100864.03;;;1.38;100.00
19086;BME280;9675;51.538;6.728;2022-11-20T07:08:37;100872.38;;;1.37;100.00
19086;BME280;9675;51.538;6.728;2022-11-20T07:11:07;100877.22;;;1.34;100.00
19086;BME280;9675;51.538;6.728;2022-11-20T07:13:34;100862.97;;;1.25;100.00
19086;BME280;9675;51.538;6.728;2022-11-20T07:16:04;100876.03;;;1.30;100.00
19086;BME280;9675;51.538;6.728;2022-11-20T07:18:32;100878.72;;;1.32;100.00
19086;BME280;9675;51.538;6.728;2022-11-20T07:21:01;100868.56;;;1.32;100.00
19086;BME280;9675;51.538;6.728;2022-11-20T07:23:28;100882.28;;;1.34;100.00
19086;BME280;9675;51.538;6.728;2022-11-20T07:25:55;100881.41;;;1.33;100.00
19086;BME280;9675;51.538;6.728;2022-11-20T07:28:23;100877.22;;;1.34;100.00
19086;BME280;9675;51.538;6.728;2022-11-20T07:30:52;100861.84;;;1.32;100.00
19086;BME280;9675;51.538;6.728;2022-11-20T07:33:19;100869.31;;;1.31;100.00
19086;BME280;9675;51.538;6.728;2022-11-20T07:35:47;100869.31;;;1.31;100.00
19086;BME280;9675;51.538;6.728;2022-11-20T07:38:14;100866.78;;;1.31;100.00
19086;BME280;9675;51.538;6.728;2022-11-20T07:40:41;100863.50;;;1.32;100.00
19086;BME280;9675;51.538;6.728;2022-11-20T07:43:08;100866.78;;;1.31;100.00
19086;BME280;9675;51.538;6.728;2022-11-20T07:45:36;100863.25;;;1.28;100.00
19086;BME280;9675;51.538;6.728;2022-11-20T07:48:04;100856.41;;;1.27;100.00
19086;BME280;9675;51.538;6.728;2022-11-20T07:50:31;100847.91;;;1.27;100.00
19086;BME280;9675;51.538;6.728;2022-11-20T07:53:03;100847.00;;;1.26;100.00
19086;BME280;9675;51.538;6.728;2022-11-20T07:55:31;100845.22;;;1.25;100.00
19086;BME280;9675;51.538;6.728;2022-11-20T07:57:59;100841.19;;;1.27;100.00
19086;BME280;9675;51.538;6.728;2022-11-20T08:00:27;100839.25;;;1.25;100.00
19086;BME280;9675;51.538;6.728;2022-11-20T08:02:55;100848.66;;;1.26;100.00
19086;BME280;9675;51.538;6.728;2022-11-20T08:05:22;100843.44;;;1.24;100.00
19086;BME280;9675;51.538;6.728;2022-11-20T08:07:49;100841.69;;;1.23;100.00
19086;BME280;9675;51.538;6.728;2022-11-20T08:10:16;100838.25;;;1.23;100.00
19086;BME280;9675;51.538;6.728;2022-11-20T08:12:45;100840.91;;;1.24;100.00
19086;BME280;9675;51.538;6.728;2022-11-20T08:15:30;100839.16;;;1.23;100.00
19086;BME280;9675;51.538;6.728;2022-11-20T08:18:05;100842.56;;;1.24;100.00
19086;BME280;9675;51.538;6.728;2022-11-20T08:20:33;100837.34;;;1.22;100.00
19086;BME280;9675;51.538;6.728;2022-11-20T08:23:03;100839.91;;;1.22;100.00
19086;BME280;9675;51.538;6.728;2022-11-20T08:25:33;100841.78;;;1.25;100.00
19086;BME280;9675;51.538;6.728;2022-11-20T08:28:02;100845.97;;;1.24;100.00
19086;BME280;9675;51.538;6.728;2022-11-20T08:30:30;100832.00;;;1.19;100.00
19086;BME280;9675;51.538;6.728;2022-11-20T08:33:03;100834.97;;;1.24;100.00
19086;BME280;9675;51.538;6.728;2022-11-20T08:35:33;100837.59;;;1.25;100.00
19086;BME280;9675;51.538;6.728;2022-11-20T08:38:01;100841.94;;;1.26;100.00
19086;BME280;9675;51.538;6.728;2022-11-20T08:40:28;100841.78;;;1.25;100.00
19086;BME280;9675;51.538;6.728;2022-11-20T08:42:55;100848.66;;;1.26;100.00
19086;BME280;9675;51.538;6.728;2022-11-20T08:45:23;100848.78;;;1.27;100.00
19086;BME280;9675;51.538;6.728;2022-11-20T08:47:50;100855.50;;;1.27;100.00
19086;BME280;9675;51.538;6.728;2022-11-20T08:50:18;100851.31;;;1.27;100.00
19086;BME280;9675;51.538;6.728;2022-11-20T08:52:45;100853.72;;;1.26;100.00
19086;BME280;9675;51.538;6.728;2022-11-20T08:55:12;100851.03;;;1.24;100.00
19086;BME280;9675;51.538;6.728;2022-11-20T08:57:39;100855.88;;;1.21;100.00
19086;BME280;9675;51.538;6.728;2022-11-20T09:00:09;100853.19;;;1.20;100.00
19086;BME280;9675;51.538;6.728;2022-11-20T09:02:36;100860.41;;;1.15;100.00
19086;BME280;9675;51.538;6.728;2022-11-20T09:05:04;100848.97;;;1.10;100.00
19086;BME280;9675;51.538;6.728;2022-11-20T09:07:33;100851.00;;;1.14;100.00
19086;BME280;9675;51.538;6.728;2022-11-20T09:10:00;100845.19;;;1.15;100.00
19086;BME280;9675;51.538;6.728;2022-11-20T09:12:27;100845.69;;;1.11;100.00
19086;BME280;9675;51.538;6.728;2022-11-20T09:14:54;100836.59;;;1.13;100.00
19086;BME280;9675;51.538;6.728;2022-11-20T09:17:21;100845.31;;;1.17;100.00
19086;BME280;9675;51.538;6.728;2022-11-20T09:19:48;100837.06;;;1.19;100.00
19086;BME280;9675;51.538;6.728;2022-11-20T09:22:15;100832.91;;;1.20;100.00
19086;BME280;9675;51.538;6.728;2022-11-20T09:24:43;100823.94;;;1.23;100.00
19086;BME280;9675;51.538;6.728;2022-11-20T09:27:10;100825.97;;;1.27;100.00
19086;BME280;9675;51.538;6.728;2022-11-20T09:29:37;100826.50;;;1.34;100.00
19086;BME280;9675;51.538;6.728;2022-11-20T09:32:05;100822.41;;;1.36;100.00
19086;BME280;9675;51.538;6.728;2022-11-20T09:34:32;100812.16;;;1.34;100.00
19086;BME280;9675;51.538;6.728;2022-11-20T09:36:59;100815.59;;;1.35;100.00
19086;BME280;9675;51.538;6.728;2022-11-20T09:39:26;100819.28;;;1.38;100.00
19086;BME280;9675;51.538;6.728;2022-11-20T09:42:24;100812.28;;;1.46;100.00
19086;BME280;9675;51.538;6.728;2022-11-20T09:45:13;100814.34;;;1.50;100.00
19086;BME280;9675;51.538;6.728;2022-11-20T09:48:03;100810.53;;;1.55;100.00
19086;BME280;9675;51.538;6.728;2022-11-20T09:50:40;100804.81;;;1.57;100.00
19086;BME280;9675;51.538;6.728;2022-11-20T09:53:22;100807.00;;;1.63;100.00
19086;BME280;9675;51.538;6.728;2022-11-20T09:55:51;100798.13;;;1.68;100.00
19086;BME280;9675;51.538;6.728;2022-11-20T09:58:29;100792.78;;;1.75;100.00
19086;BME280;9675;51.538;6.728;2022-11-20T10:01:12;100790.13;;;1.84;100.00
19086;BME280;9675;51.538;6.728;2022-11-20T10:03:52;100795.84;;;1.91;100.00
19086;BME280;9675;51.538;6.728;2022-11-20T10:06:29;100786.16;;;1.97;100.00
19086;BME280;9675;51.538;6.728;2022-11-20T10:09:13;100790.25;;;2.05;100.00
19086;BME280;9675;51.538;6.728;2022-11-20T10:11:52;100789.19;;;2.13;100.00
19086;BME280;9675;51.538;6.728;2022-11-20T10:14:38;100792.38;;;2.21;100.00
19086;BME280;9675;51.538;6.728;2022-11-20T10:17:23;100805.69;;;2.29;100.00
19086;BME280;9675;51.538;6.728;2022-11-20T10:20:16;100796.03;;;2.35;100.00
19086;BME280;9675;51.538;6.728;2022-11-20T10:23:07;100778.72;;;2.41;100.00
19086;BME280;9675;51.538;6.728;2022-11-20T10:25:46;100775.81;;;2.46;100.00
19086;BME280;9675;51.538;6.728;2022-11-20T10:28:30;100765.88;;;2.49;100.00
19086;BME280;9675;51.538;6.728;2022-11-20T10:31:08;100763.69;;;2.54;100.00
19086;BME280;9675;51.538;6.728;2022-11-20T10:33:41;100749.47;;;2.56;100.00
19086;BME280;9675;51.538;6.728;2022-11-20T10:36:17;100745.63;;;2.61;100.00
19086;BME280;9675;51.538;6.728;2022-11-20T10:38:51;100745.88;;;2.64;100.00
19086;BME280;9675;51.538;6.728;2022-11-20T10:41:27;100755.53;;;2.68;100.00
19086;BME280;9675;51.538;6.728;2022-11-20T10:44:04;100753.22;;;2.71;100.00
19086;BME280;9675;51.538;6.728;2022-11-20T10:47:21;100758.56;;;2.74;100.00
19086;BME280;9675;51.538;6.728;2022-11-20T10:49:54;100747.59;;;2.75;100.00
19086;BME280;9675;51.538;6.728;2022-11-20T10:52:34;100746.06;;;2.77;100.00
19086;BME280;9675;51.538;6.728;2022-11-20T10:55:16;100742.88;;;2.80;100.00
19086;BME280;9675;51.538;6.728;2022-11-20T10:57:57;100742.22;;;2.82;100.00
19086;BME280;9675;51.538;6.728;2022-11-20T11:00:31;100734.72;;;2.84;100.00
19086;BME280;9675;51.538;6.728;2022-11-20T11:03:00;100726.44;;;2.86;100.00
19086;BME280;9675;51.538;6.728;2022-11-20T11:05:42;100719.16;;;2.91;100.00
19086;BME280;9675;51.538;6.728;2022-11-20T11:08:16;100712.69;;;2.94;100.00
19086;BME280;9675;51.538;6.728;2022-11-20T11:10:51;100712.91;;;2.97;100.00
19086;BME280;9675;51.538;6.728;2022-11-20T11:13:21;100706.28;;;2.99;100.00
19086;BME280;9675;51.538;6.728;2022-11-20T11:15:49;100703.22;;;3.04;100.00
19086;BME280;9675;51.538;6.728;2022-11-20T11:18:26;100710.06;;;3.05;100.00
19086;BME280;9675;51.538;6.728;2022-11-20T11:20:56;100702.53;;;3.06;100.00
19086;BME280;9675;51.538;6.728;2022-11-20T11:23:33;100694.13;;;3.07;100.00
19086;BME280;9675;51.538;6.728;2022-11-20T11:26:03;100703.91;;;3.13;100.00
19086;BME280;9675;51.538;6.728;2022-11-20T11:28:31;100688.75;;;3.14;100.00
19086;BME280;9675;51.538;6.728;2022-11-20T11:30:59;100687.19;;;3.16;100.00
19086;BME280;9675;51.538;6.728;2022-11-20T11:33:30;100686.44;;;3.17;100.00
19086;BME280;9675;51.538;6.728;2022-11-20T11:36:03;100675.63;;;3.20;100.00
19086;BME280;9675;51.538;6.728;2022-11-20T11:38:34;100663.00;;;3.21;100.00
19086;BME280;9675;51.538;6.728;2022-11-20T11:41:04;100670.00;;;3.24;100.00
19086;BME280;9675;51.538;6.728;2022-11-20T11:43:35;100665.13;;;3.27;100.00
19086;BME280;9675;51.538;6.728;2022-11-20T11:46:28;100654.09;;;3.26;100.00
19086;BME280;9675;51.538;6.728;2022-11-20T11:49:00;100648.31;;;3.29;100.00
19086;BME280;9675;51.538;6.728;2022-11-20T11:51:37;100646.00;;;3.32;100.00
19086;BME280;9675;51.538;6.728;2022-11-20T11:54:15;100637.59;;;3.33;100.00
19086;BME280;9675;51.538;6.728;2022-11-20T11:56:45;100625.00;;;3.34;100.00
19086;BME280;9675;51.538;6.728;2022-11-20T11:59:24;100621.78;;;3.37;100.00
19086;BME280;9675;51.538;6.728;2022-11-20T12:01:59;100626.09;;;3.38;100.00
19086;BME280;9675;51.538;6.728;2022-11-20T12:04:42;100624.56;;;3.40;100.00
19086;BME280;9675;51.538;6.728;2022-11-20T12:07:19;100621.25;;;3.41;100.00
19086;BME280;9675;51.538;6.728;2022-11-20T12:09:52;100622.22;;;3.43;100.00
19086;BME280;9675;51.538;6.728;2022-11-20T12:12:25;100624.00;;;3.44;100.00
19086;BME280;9675;51.538;6.728;2022-11-20T12:14:57;100619.03;;;3.46;100.00
19086;BME280;9675;51.538;6.728;2022-11-20T12:17:25;100613.94;;;3.46;100.00
19086;BME280;9675;51.538;6.728;2022-11-20T12:19:53;100619.94;;;3.46;100.00
19086;BME280;9675;51.538;6.728;2022-11-20T12:22:31;100612.28;;;3.46;100.00
19086;BME280;9675;51.538;6.728;2022-11-20T12:25:12;100609.84;;;3.48;100.00
19086;BME280;9675;51.538;6.728;2022-11-20T12:28:07;100609.19;;;3.50;100.00
19086;BME280;9675;51.538;6.728;2022-11-20T12:30:49;100606.66;;;3.50;100.00
19086;BME280;9675;51.538;6.728;2022-11-20T12:36:41;100595.78;;;3.53;100.00
19086;BME280;9675;51.538;6.728;2022-11-20T12:45:51;100576.56;;;3.56;100.00
19086;BME280;9675;51.538;6.728;2022-11-20T12:48:41;100568.16;;;3.57;100.00
19086;BME280;9675;51.538;6.728;2022-11-20T12:51:37;100559.72;;;3.58;100.00
19086;BME280;9675;51.538;6.728;2022-11-20T12:54:36;100558.94;;;3.59;100.00
19086;BME280;9675;51.538;6.728;2022-11-20T12:57:16;100560.84;;;3.62;100.00
19086;BME280;9675;51.538;6.728;2022-11-20T13:00:12;100552.41;;;3.63;100.00
19086;BME280;9675;51.538;6.728;2022-11-20T13:03:24;100549.97;;;3.64;100.00
19086;BME280;9675;51.538;6.728;2022-11-20T13:06:05;100544.13;;;3.65;100.00
19086;BME280;9675;51.538;6.728;2022-11-20T13:08:41;100531.38;;;3.65;100.00
19086;BME280;9675;51.538;6.728;2022-11-20T13:11:18;100534.06;;;3.67;100.00
19086;BME280;9675;51.538;6.728;2022-11-20T13:14:10;100545.22;;;3.69;100.00
19086;BME280;9675;51.538;6.728;2022-11-20T13:16:45;100537.69;;;3.70;100.00
19086;BME280;9675;51.538;6.728;2022-11-20T13:19:17;100526.75;;;3.71;100.00
19086;BME280;9675;51.538;6.728;2022-11-20T13:21:46;100519.09;;;3.71;100.00
19086;BME280;9675;51.538;6.728;2022-11-20T13:24:25;100515.88;;;3.74;100.00
19086;BME280;9675;51.538;6.728;2022-11-20T13:27:19;100503.25;;;3.75;100.00
19086;BME280;9675;51.538;6.728;2022-11-20T13:30:00;100492.31;;;3.76;100.00
19086;BME280;9675;51.538;6.728;2022-11-20T13:32:28;100490.66;;;3.77;100.00
19086;BME280;9675;51.538;6.728;2022-11-20T13:35:01;100493.28;;;3.78;100.00